sensor_id;sensor_type;location;lat;lon;timestamp;temperature;humidity
17200;DHT22;8716;52.268;20.968;2023-01-15T00:02:12;6.40;99.90
17200;DHT22;8716;52.268;20.968;2023-01-15T00:04:49;6.50;99.90
17200;DHT22;8716;52.268;20.968;2023-01-15T00:07:20;6.50;99.90
17200;DHT22;8716;52.268;20.968;2023-01-15T00:09:49;6.50;99.90
17200;DHT22;8716;52.268;20.968;2023-01-15T00:12:17;6.50;99.90
17200;DHT22;8716;52.268;20.968;2023-01-15T00:14:45;6.50;99.90
17200;DHT22;8716;52.268;20.968;2023-01-15T00:17:14;6.50;99.90
17200;DHT22;8716;52.268;20.968;2023-01-15T00:19:42;6.60;99.90
17200;DHT22;8716;52.268;20.968;2023-01-15T00:22:11;6.60;99.90
17200;DHT22;8716;52.268;20.968;2023-01-15T00:24:40;6.60;99.90
17200;DHT22;8716;52.268;20.968;2023-01-15T00:27:30;6.60;99.90
17200;DHT22;8716;52.268;20.968;2023-01-15T00:30:10;6.50;99.90
17200;DHT22;8716;52.268;20.968;2023-01-15T00:32:39;6.50;99.90
17200;DHT22;8716;52.268;20.968;2023-01-15T00:35:11;6.50;99.90
17200;DHT22;8716;52.268;20.968;2023-01-15T00:37:42;6.50;99.90
17200;DHT22;8716;52.268;20.968;2023-01-15T00:40:11;6.50;99.90
17200;DHT22;8716;52.268;20.968;2023-01-15T00:42:39;6.60;99.90
17200;DHT22;8716;52.268;20.968;2023-01-15T00:45:11;6.60;99.90
17200;DHT22;8716;52.268;20.968;2023-01-15T00:47:41;6.60;99.90
17200;DHT22;8716;52.268;20.968;2023-01-15T00:50:11;6.60;99.90
17200;DHT22;8716;52.268;20.968;2023-01-15T00:52:44;6.50;99.90
17200;DHT22;8716;52.268;20.968;2023-01-15T00:55:12;6.50;99.90
17200;DHT22;8716;52.268;20.968;2023-01-15T00:57:40;6.50;99.90
17200;DHT22;8716;52.268;20.968;2023-01-15T01:00:10;6.40;99.90
17200;DHT22;8716;52.268;20.968;2023-01-15T01:02:39;6.40;99.90
17200;DHT22;8716;52.268;20.968;2023-01-15T01:05:08;6.40;99.90
17200;DHT22;8716;52.268;20.968;2023-01-15T01:07:36;6.40;99.90
17200;DHT22;8716;52.268;20.968;2023-01-15T01:10:07;6.40;99.90
17200;DHT22;8716;52.268;20.968;2023-01-15T01:12:35;6.40;99.90
17200;DHT22;8716;52.268;20.968;2023-01-15T01:15:05;6.40;99.90
17200;DHT22;8716;52.268;20.968;2023-01-15T01:17:38;6.30;99.90
17200;DHT22;8716;52.268;20.968;2023-01-15T01:20:07;6.30;99.90
17200;DHT22;8716;52.268;20.968;2023-01-15T01:22:36;6.30;99.90
17200;DHT22;8716;52.268;20.968;2023-01-15T01:25:07;6.20;99.90
17200;DHT22;8716;52.268;20.968;2023-01-15T01:27:37;6.20;99.90
17200;DHT22;8716;52.268;20.968;2023-01-15T01:30:07;6.20;99.90
17200;DHT22;8716;52.268;20.968;2023-01-15T01:32:35;6.20;99.90
17200;DHT22;8716;52.268;20.968;2023-01-15T01:35:04;6.20;99.90
17200;DHT22;8716;52.268;20.968;2023-01-15T01:37:33;6.20;99.90
17200;DHT22;8716;52.268;20.968;2023-01-15T01:40:02;6.20;99.90
17200;DHT22;8716;52.268;20.968;2023-01-15T01:42:32;6.20;99.90
17200;DHT22;8716;52.268;20.968;2023-01-15T01:45:05;6.20;99.90
17200;DHT22;8716;52.268;20.968;2023-01-15T01:47:33;6.20;99.90
17200;DHT22;8716;52.268;20.968;2023-01-15T01:50:06;6.10;99.90
17200;DHT22;8716;52.268;20.968;2023-01-15T01:52:39;6.10;99.90
17200;DHT22;8716;52.268;20.968;2023-01-15T01:55:10;6.10;99.90
17200;DHT22;8716;52.268;20.968;2023-01-15T01:57:41;6.10;99.90
17200;DHT22;8716;52.268;20.968;2023-01-15T02:00:11;6.10;99.90
17200;DHT22;8716;52.268;20.968;2023-01-15T02:02:43;6.00;99.90
17200;DHT22;8716;52.268;20.968;2023-01-15T02:05:16;6.00;99.90
17200;DHT22;8716;52.268;20.968;2023-01-15T02:07:46;6.00;99.90
17200;DHT22;8716;52.268;20.968;2023-01-15T02:10:15;6.00;99.90
17200;DHT22;8716;52.268;20.968;2023-01-15T02:12:53;6.00;99.90
17200;DHT22;8716;52.268;20.968;2023-01-15T02:15:27;5.90;99.90
17200;DHT22;8716;52.268;20.968;2023-01-15T02:18:03;5.90;99.90
17200;DHT22;8716;52.268;20.968;2023-01-15T02:20:37;5.80;99.90
17200;DHT22;8716;52.268;20.968;2023-01-15T02:23:22;5.80;99.90
17200;DHT22;8716;52.268;20.968;2023-01-15T02:28:57;5.80;99.90
17200;DHT22;8716;52.268;20.968;2023-01-15T02:31:30;5.90;99.90
17200;DHT22;8716;52.268;20.968;2023-01-15T02:34:05;5.90;99.90
17200;DHT22;8716;52.268;20.968;2023-01-15T02:36:41;5.90;99.90
17200;DHT22;8716;52.268;20.968;2023-01-15T02:39:19;5.90;99.90
17200;DHT22;8716;52.268;20.968;2023-01-15T02:41:50;5.80;99.90
17200;DHT22;8716;52.268;20.968;2023-01-15T02:44:21;5.80;99.90
17200;DHT22;8716;52.268;20.968;2023-01-15T02:46:54;5.80;99.90
17200;DHT22;8716;52.268;20.968;2023-01-15T02:49:25;5.80;99.90
17200;DHT22;8716;52.268;20.968;2023-01-15T02:52:01;5.80;99.90
17200;DHT22;8716;52.268;20.968;2023-01-15T02:54:42;5.80;99.90
17200;DHT22;8716;52.268;20.968;2023-01-15T02:57:13;5.80;99.90
17200;DHT22;8716;52.268;20.968;2023-01-15T02:59:49;5.80;99.90
17200;DHT22;8716;52.268;20.968;2023-01-15T03:02:21;5.80;99.90
17200;DHT22;8716;52.268;20.968;2023-01-15T03:04:53;5.90;99.90
17200;DHT22;8716;52.268;20.968;2023-01-15T03:07:28;5.90;99.90
17200;DHT22;8716;52.268;20.968;2023-01-15T03:09:58;5.90;99.90
17200;DHT22;8716;52.268;20.968;2023-01-15T03:12:29;5.90;99.90
17200;DHT22;8716;52.268;20.968;2023-01-15T03:15:27;5.80;99.90
17200;DHT22;8716;52.268;20.968;2023-01-15T03:18:20;5.70;99.90
17200;DHT22;8716;52.268;20.968;2023-01-15T03:20:51;5.80;99.90
17200;DHT22;8716;52.268;20.968;2023-01-15T03:23:26;5.80;99.90
17200;DHT22;8716;52.268;20.968;2023-01-15T03:25:56;5.80;99.90
17200;DHT22;8716;52.268;20.968;2023-01-15T03:28:29;5.80;99.90
17200;DHT22;8716;52.268;20.968;2023-01-15T03:31:00;5.80;99.90
17200;DHT22;8716;52.268;20.968;2023-01-15T03:33:29;5.80;99.90
17200;DHT22;8716;52.268;20.968;2023-01-15T03:35:59;5.80;99.90
17200;DHT22;8716;52.268;20.968;2023-01-15T03:38:48;5.80;99.90
17200;DHT22;8716;52.268;20.968;2023-01-15T03:41:38;5.90;99.90
17200;DHT22;8716;52.268;20.968;2023-01-15T03:44:16;5.80;99.90
17200;DHT22;8716;52.268;20.968;2023-01-15T03:47:06;5.90;99.90
17200;DHT22;8716;52.268;20.968;2023-01-15T03:49:49;5.90;99.90
17200;DHT22;8716;52.268;20.968;2023-01-15T03:52:39;5.80;99.90
17200;DHT22;8716;52.268;20.968;2023-01-15T03:55:16;5.90;99.90
17200;DHT22;8716;52.268;20.968;2023-01-15T03:57:59;5.90;99.90
17200;DHT22;8716;52.268;20.968;2023-01-15T04:00:36;5.80;99.90
17200;DHT22;8716;52.268;20.968;2023-01-15T04:03:08;5.80;99.90
17200;DHT22;8716;52.268;20.968;2023-01-15T04:05:38;5.90;99.90
17200;DHT22;8716;52.268;20.968;2023-01-15T04:08:07;5.90;99.90
17200;DHT22;8716;52.268;20.968;2023-01-15T04:10:36;5.90;99.90
17200;DHT22;8716;52.268;20.968;2023-01-15T04:13:08;5.90;99.90
17200;DHT22;8716;52.268;20.968;2023-01-15T04:15:39;5.90;99.90
17200;DHT22;8716;52.268;20.968;2023-01-15T04:18:08;6.00;99.90
17200;DHT22;8716;52.268;20.968;2023-01-15T04:20:40;6.00;99.90
17200;DHT22;8716;52.268;20.968;2023-01-15T04:23:09;5.90;99.90
17200;DHT22;8716;52.268;20.968;2023-01-15T04:25:37;5.90;99.90
17200;DHT22;8716;52.268;20.968;2023-01-15T04:28:07;5.90;99.90
17200;DHT22;8716;52.268;20.968;2023-01-15T04:30:36;5.90;99.90
17200;DHT22;8716;52.268;20.968;2023-01-15T04:33:04;5.90;99.90
17200;DHT22;8716;52.268;20.968;2023-01-15T04:35:34;5.90;99.90
17200;DHT22;8716;52.268;20.968;2023-01-15T04:38:02;5.90;99.90
17200;DHT22;8716;52.268;20.968;2023-01-15T04:40:30;5.80;99.90
17200;DHT22;8716;52.268;20.968;2023-01-15T04:43:16;5.90;99.90
17200;DHT22;8716;52.268;20.968;2023-01-15T04:46:02;5.90;99.90
17200;DHT22;8716;52.268;20.968;2023-01-15T04:48:30;5.90;99.90
17200;DHT22;8716;52.268;20.968;2023-01-15T04:51:02;5.90;99.90
17200;DHT22;8716;52.268;20.968;2023-01-15T04:53:32;5.90;99.90
17200;DHT22;8716;52.268;20.968;2023-01-15T04:56:00;5.90;99.90
17200;DHT22;8716;52.268;20.968;2023-01-15T04:58:29;5.90;99.90
17200;DHT22;8716;52.268;20.968;2023-01-15T05:00:57;5.90;99.90
17200;DHT22;8716;52.268;20.968;2023-01-15T05:03:26;5.90;99.90
17200;DHT22;8716;52.268;20.968;2023-01-15T05:05:59;5.90;99.90
17200;DHT22;8716;52.268;20.968;2023-01-15T05:08:29;5.90;99.90
17200;DHT22;8716;52.268;20.968;2023-01-15T05:11:00;6.00;99.90
17200;DHT22;8716;52.268;20.968;2023-01-15T05:13:29;5.90;99.90
17200;DHT22;8716;52.268;20.968;2023-01-15T05:16:10;5.90;99.90
17200;DHT22;8716;52.268;20.968;2023-01-15T05:18:40;5.90;99.90
17200;DHT22;8716;52.268;20.968;2023-01-15T05:21:13;5.90;99.90
17200;DHT22;8716;52.268;20.968;2023-01-15T05:23:43;6.00;99.90
17200;DHT22;8716;52.268;20.968;2023-01-15T05:26:12;6.00;99.90
17200;DHT22;8716;52.268;20.968;2023-01-15T05:28:43;6.10;99.90
17200;DHT22;8716;52.268;20.968;2023-01-15T05:31:13;6.10;99.90
17200;DHT22;8716;52.268;20.968;2023-01-15T05:33:42;6.10;99.90
17200;DHT22;8716;52.268;20.968;2023-01-15T05:36:15;6.10;99.90
17200;DHT22;8716;52.268;20.968;2023-01-15T05:38:45;6.10;99.90
17200;DHT22;8716;52.268;20.968;2023-01-15T05:41:14;6.10;99.90
17200;DHT22;8716;52.268;20.968;2023-01-15T05:44:00;6.10;99.90
17200;DHT22;8716;52.268;20.968;2023-01-15T05:46:28;6.10;99.90
17200;DHT22;8716;52.268;20.968;2023-01-15T05:48:59;6.10;99.90
17200;DHT22;8716;52.268;20.968;2023-01-15T05:51:28;6.10;99.90
17200;DHT22;8716;52.268;20.968;2023-01-15T05:54:01;6.10;99.90
17200;DHT22;8716;52.268;20.968;2023-01-15T05:56:29;6.10;99.90
17200;DHT22;8716;52.268;20.968;2023-01-15T05:58:57;6.20;99.90
17200;DHT22;8716;52.268;20.968;2023-01-15T06:01:29;6.20;99.90
17200;DHT22;8716;52.268;20.968;2023-01-15T06:03:57;6.20;99.90
17200;DHT22;8716;52.268;20.968;2023-01-15T06:06:26;6.10;99.90
17200;DHT22;8716;52.268;20.968;2023-01-15T06:08:55;6.20;99.90
17200;DHT22;8716;52.268;20.968;2023-01-15T06:11:27;6.20;99.90
17200;DHT22;8716;52.268;20.968;2023-01-15T06:13:55;6.20;99.90
17200;DHT22;8716;52.268;20.968;2023-01-15T06:16:24;6.20;99.90
17200;DHT22;8716;52.268;20.968;2023-01-15T06:18:52;6.30;99.90
17200;DHT22;8716;52.268;20.968;2023-01-15T06:21:20;6.20;99.90
17200;DHT22;8716;52.268;20.968;2023-01-15T06:23:48;6.10;99.90
17200;DHT22;8716;52.268;20.968;2023-01-15T06:26:19;6.10;99.90
17200;DHT22;8716;52.268;20.968;2023-01-15T06:28:49;6.00;99.90
17200;DHT22;8716;52.268;20.968;2023-01-15T06:31:20;6.00;99.90
17200;DHT22;8716;52.268;20.968;2023-01-15T06:33:49;6.10;99.90
17200;DHT22;8716;52.268;20.968;2023-01-15T06:36:21;6.10;99.90
17200;DHT22;8716;52.268;20.968;2023-01-15T06:38:50;6.00;99.90
17200;DHT22;8716;52.268;20.968;2023-01-15T06:41:20;6.00;99.90
17200;DHT22;8716;52.268;20.968;2023-01-15T06:44:10;6.10;99.90
17200;DHT22;8716;52.268;20.968;2023-01-15T06:46:56;6.10;99.90
17200;DHT22;8716;52.268;20.968;2023-01-15T06:49:41;6.10;99.90
17200;DHT22;8716;52.268;20.968;2023-01-15T06:52:10;6.10;99.90
17200;DHT22;8716;52.268;20.968;2023-01-15T06:54:38;6.20;99.90
17200;DHT22;8716;52.268;20.968;2023-01-15T06:57:06;6.20;99.90
17200;DHT22;8716;52.268;20.968;2023-01-15T06:59:36;6.10;99.90
17200;DHT22;8716;52.268;20.968;2023-01-15T07:02:04;6.00;99.90
17200;DHT22;8716;52.268;20.968;2023-01-15T07:04:32;6.00;99.90
17200;DHT22;8716;52.268;20.968;2023-01-15T07:07:00;6.00;99.90
17200;DHT22;8716;52.268;20.968;2023-01-15T07:09:29;5.90;99.90
17200;DHT22;8716;52.268;20.968;2023-01-15T07:11:57;5.80;99.90
17200;DHT22;8716;52.268;20.968;2023-01-15T07:14:25;5.70;99.90
17200;DHT22;8716;52.268;20.968;2023-01-15T07:16:55;5.70;99.90
17200;DHT22;8716;52.268;20.968;2023-01-15T07:19:25;5.70;99.90
17200;DHT22;8716;52.268;20.968;2023-01-15T07:21:53;5.70;99.90
17200;DHT22;8716;52.268;20.968;2023-01-15T07:24:21;5.70;99.90
17200;DHT22;8716;52.268;20.968;2023-01-15T07:26:50;5.60;99.90
17200;DHT22;8716;52.268;20.968;2023-01-15T07:29:18;5.50;99.90
17200;DHT22;8716;52.268;20.968;2023-01-15T07:31:46;5.50;99.90
17200;DHT22;8716;52.268;20.968;2023-01-15T07:34:16;5.50;99.90
17200;DHT22;8716;52.268;20.968;2023-01-15T07:36:44;5.60;99.90
17200;DHT22;8716;52.268;20.968;2023-01-15T07:39:12;5.60;99.90
17200;DHT22;8716;52.268;20.968;2023-01-15T07:41:40;5.60;99.90
17200;DHT22;8716;52.268;20.968;2023-01-15T07:44:26;5.70;99.90
17200;DHT22;8716;52.268;20.968;2023-01-15T07:47:16;5.70;99.90
17200;DHT22;8716;52.268;20.968;2023-01-15T07:50:06;5.80;99.90
17200;DHT22;8716;52.268;20.968;2023-01-15T07:52:38;5.80;99.90
17200;DHT22;8716;52.268;20.968;2023-01-15T07:55:06;5.80;99.90
17200;DHT22;8716;52.268;20.968;2023-01-15T07:57:36;5.80;99.90
17200;DHT22;8716;52.268;20.968;2023-01-15T08:00:06;5.80;99.90
17200;DHT22;8716;52.268;20.968;2023-01-15T08:02:37;5.90;99.90
17200;DHT22;8716;52.268;20.968;2023-01-15T08:05:08;5.80;99.90
17200;DHT22;8716;52.268;20.968;2023-01-15T08:07:39;5.90;99.90
17200;DHT22;8716;52.268;20.968;2023-01-15T08:10:11;6.00;99.90
17200;DHT22;8716;52.268;20.968;2023-01-15T08:12:39;6.00;99.90
17200;DHT22;8716;52.268;20.968;2023-01-15T08:15:25;6.10;99.90
17200;DHT22;8716;52.268;20.968;2023-01-15T08:17:55;6.10;99.90
17200;DHT22;8716;52.268;20.968;2023-01-15T08:20:25;6.10;99.90
17200;DHT22;8716;52.268;20.968;2023-01-15T08:22:53;6.20;99.90
17200;DHT22;8716;52.268;20.968;2023-01-15T08:25:22;6.30;99.90
17200;DHT22;8716;52.268;20.968;2023-01-15T08:27:52;6.30;99.90
17200;DHT22;8716;52.268;20.968;2023-01-15T08:30:22;6.30;99.90
17200;DHT22;8716;52.268;20.968;2023-01-15T08:32:51;6.30;99.90
17200;DHT22;8716;52.268;20.968;2023-01-15T08:35:19;6.30;99.90
17200;DHT22;8716;52.268;20.968;2023-01-15T08:37:49;6.30;99.90
17200;DHT22;8716;52.268;20.968;2023-01-15T08:40:17;6.40;99.90
17200;DHT22;8716;52.268;20.968;2023-01-15T08:42:45;6.40;99.90
17200;DHT22;8716;52.268;20.968;2023-01-15T08:45:14;6.40;99.90
17200;DHT22;8716;52.268;20.968;2023-01-15T08:47:43;6.30;99.90
17200;DHT22;8716;52.268;20.968;2023-01-15T08:50:11;6.40;99.90
17200;DHT22;8716;52.268;20.968;2023-01-15T08:52:39;6.40;99.90
17200;DHT22;8716;52.268;20.968;2023-01-15T08:55:12;6.40;99.90
17200;DHT22;8716;52.268;20.968;2023-01-15T08:57:40;6.40;99.90
17200;DHT22;8716;52.268;20.968;2023-01-15T09:00:11;6.40;99.90
17200;DHT22;8716;52.268;20.968;2023-01-15T09:02:40;6.40;99.90
17200;DHT22;8716;52.268;20.968;2023-01-15T09:05:09;6.40;99.90
17200;DHT22;8716;52.268;20.968;2023-01-15T09:07:37;6.40;99.90
17200;DHT22;8716;52.268;20.968;2023-01-15T09:10:08;6.50;99.90
17200;DHT22;8716;52.268;20.968;2023-01-15T09:12:38;6.50;99.90
17200;DHT22;8716;52.268;20.968;2023-01-15T09:15:07;6.50;99.90
17200;DHT22;8716;52.268;20.968;2023-01-15T09:17:36;6.50;99.90
17200;DHT22;8716;52.268;20.968;2023-01-15T09:20:08;6.50;99.90
17200;DHT22;8716;52.268;20.968;2023-01-15T09:22:37;6.40;99.90
17200;DHT22;8716;52.268;20.968;2023-01-15T09:25:06;6.40;99.90
17200;DHT22;8716;52.268;20.968;2023-01-15T09:27:34;6.40;99.90
17200;DHT22;8716;52.268;20.968;2023-01-15T09:30:06;6.40;99.90
17200;DHT22;8716;52.268;20.968;2023-01-15T09:32:34;6.40;99.90
17200;DHT22;8716;52.268;20.968;2023-01-15T09:35:04;6.30;99.90
17200;DHT22;8716;52.268;20.968;2023-01-15T09:37:32;6.40;99.90
17200;DHT22;8716;52.268;20.968;2023-01-15T09:40:00;6.40;99.90
17200;DHT22;8716;52.268;20.968;2023-01-15T09:42:39;6.30;99.90
17200;DHT22;8716;52.268;20.968;2023-01-15T09:45:19;6.30;99.90
17200;DHT22;8716;52.268;20.968;2023-01-15T09:48:06;6.20;99.90
17200;DHT22;8716;52.268;20.968;2023-01-15T09:50:45;6.20;99.90
17200;DHT22;8716;52.268;20.968;2023-01-15T09:53:36;6.10;99.90
17200;DHT22;8716;52.268;20.968;2023-01-15T09:56:13;6.10;99.90
17200;DHT22;8716;52.268;20.968;2023-01-15T09:58:43;6.10;99.90
17200;DHT22;8716;52.268;20.968;2023-01-15T10:01:16;6.10;99.90
17200;DHT22;8716;52.268;20.968;2023-01-15T10:03:48;6.10;99.90
17200;DHT22;8716;52.268;20.968;2023-01-15T10:06:21;6.10;99.90
17200;DHT22;8716;52.268;20.968;2023-01-15T10:08:56;6.10;99.90
17200;DHT22;8716;52.268;20.968;2023-01-15T10:11:34;6.10;99.90
17200;DHT22;8716;52.268;20.968;2023-01-15T10:14:36;6.10;99.90
17200;DHT22;8716;52.268;20.968;2023-01-15T10:17:21;6.10;99.90
17200;DHT22;8716;52.268;20.968;2023-01-15T10:19:52;6.10;99.90
17200;DHT22;8716;52.268;20.968;2023-01-15T10:22:36;6.10;99.90
17200;DHT22;8716;52.268;20.968;2023-01-15T10:25:14;6.10;99.90
17200;DHT22;8716;52.268;20.968;2023-01-15T10:27:46;6.20;99.90
17200;DHT22;8716;52.268;20.968;2023-01-15T10:30:26;6.20;99.90
17200;DHT22;8716;52.268;20.968;2023-01-15T10:33:05;6.20;99.90
17200;DHT22;8716;52.268;20.968;2023-01-15T10:35:43;6.20;99.90
17200;DHT22;8716;52.268;20.968;2023-01-15T10:38:18;6.20;99.90
17200;DHT22;8716;52.268;20.968;2023-01-15T10:41:05;6.20;99.90
17200;DHT22;8716;52.268;20.968;2023-01-15T10:43:44;6.30;99.90
17200;DHT22;8716;52.268;20.968;2023-01-15T10:46:16;6.30;99.90
17200;DHT22;8716;52.268;20.968;2023-01-15T10:48:49;6.30;99.90
17200;DHT22;8716;52.268;20.968;2023-01-15T10:51:20;6.40;99.90
17200;DHT22;8716;52.268;20.968;2023-01-15T10:53:51;6.40;99.90
17200;DHT22;8716;52.268;20.968;2023-01-15T10:56:31;6.40;99.90
17200;DHT22;8716;52.268;20.968;2023-01-15T10:59:11;6.40;99.90
17200;DHT22;8716;52.268;20.968;2023-01-15T11:01:42;6.40;99.90
17200;DHT22;8716;52.268;20.968;2023-01-15T11:04:12;6.40;99.90
17200;DHT22;8716;52.268;20.968;2023-01-15T11:06:42;6.40;99.90
17200;DHT22;8716;52.268;20.968;2023-01-15T11:09:18;6.40;99.90
17200;DHT22;8716;52.268;20.968;2023-01-15T11:11:49;6.40;99.90
17200;DHT22;8716;52.268;20.968;2023-01-15T11:14:37;6.50;99.90
17200;DHT22;8716;52.268;20.968;2023-01-15T11:17:26;6.50;99.90
17200;DHT22;8716;52.268;20.968;2023-01-15T11:20:24;6.50;99.90
17200;DHT22;8716;52.268;20.968;2023-01-15T11:22:54;6.50;99.90
17200;DHT22;8716;52.268;20.968;2023-01-15T11:25:28;6.50;99.90
17200;DHT22;8716;52.268;20.968;2023-01-15T11:27:58;6.50;99.90
17200;DHT22;8716;52.268;20.968;2023-01-15T11:30:29;6.50;99.90
17200;DHT22;8716;52.268;20.968;2023-01-15T11:33:00;6.50;99.90
17200;DHT22;8716;52.268;20.968;2023-01-15T11:35:32;6.50;99.90
17200;DHT22;8716;52.268;20.968;2023-01-15T11:38:02;6.50;99.90
17200;DHT22;8716;52.268;20.968;2023-01-15T11:40:31;6.50;99.90
17200;DHT22;8716;52.268;20.968;2023-01-15T11:42:59;6.60;99.90
17200;DHT22;8716;52.268;20.968;2023-01-15T11:45:46;6.50;99.90
17200;DHT22;8716;52.268;20.968;2023-01-15T11:48:43;6.60;99.90
17200;DHT22;8716;52.268;20.968;2023-01-15T11:51:34;6.60;99.90
17200;DHT22;8716;52.268;20.968;2023-01-15T11:54:09;6.60;99.90
17200;DHT22;8716;52.268;20.968;2023-01-15T11:56:42;6.70;99.90
17200;DHT22;8716;52.268;20.968;2023-01-15T11:59:12;6.60;99.90
17200;DHT22;8716;52.268;20.968;2023-01-15T12:01:48;6.50;99.90
17200;DHT22;8716;52.268;20.968;2023-01-15T12:04:33;6.60;99.90
17200;DHT22;8716;52.268;20.968;2023-01-15T12:07:05;6.60;99.90
17200;DHT22;8716;52.268;20.968;2023-01-15T12:09:53;6.60;99.90
17200;DHT22;8716;52.268;20.968;2023-01-15T12:12:34;6.60;99.90
17200;DHT22;8716;52.268;20.968;2023-01-15T12:15:26;6.60;99.90
17200;DHT22;8716;52.268;20.968;2023-01-15T12:18:13;6.60;99.90
17200;DHT22;8716;52.268;20.968;2023-01-15T12:20:56;6.60;99.90
17200;DHT22;8716;52.268;20.968;2023-01-15T12:23:57;6.70;99.90
17200;DHT22;8716;52.268;20.968;2023-01-15T12:26:30;6.70;99.90
17200;DHT22;8716;52.268;20.968;2023-01-15T12:29:04;6.70;99.90
17200;DHT22;8716;52.268;20.968;2023-01-15T12:31:36;6.70;99.90
17200;DHT22;8716;52.268;20.968;2023-01-15T12:34:15;6.70;99.90
17200;DHT22;8716;52.268;20.968;2023-01-15T12:36:49;6.80;99.90
17200;DHT22;8716;52.268;20.968;2023-01-15T12:39:23;6.70;99.90
17200;DHT22;8716;52.268;20.968;2023-01-15T12:41:56;6.80;99.90
17200;DHT22;8716;52.268;20.968;2023-01-15T12:44:47;6.80;99.90
17200;DHT22;8716;52.268;20.968;2023-01-15T12:47:35;6.80;99.90
17200;DHT22;8716;52.268;20.968;2023-01-15T12:50:26;6.90;99.90
17200;DHT22;8716;52.268;20.968;2023-01-15T12:53:00;6.80;99.90
17200;DHT22;8716;52.268;20.968;2023-01-15T12:55:35;6.90;99.90
17200;DHT22;8716;52.268;20.968;2023-01-15T12:58:10;7.00;99.90
17200;DHT22;8716;52.268;20.968;2023-01-15T13:00:43;6.90;99.90
17200;DHT22;8716;52.268;20.968;2023-01-15T13:03:20;7.00;99.90
17200;DHT22;8716;52.268;20.968;2023-01-15T13:05:52;7.00;99.90
17200;DHT22;8716;52.268;20.968;2023-01-15T13:08:26;7.10;99.90
17200;DHT22;8716;52.268;20.968;2023-01-15T13:11:00;7.10;99.90
17200;DHT22;8716;52.268;20.968;2023-01-15T13:13:31;7.10;99.90
17200;DHT22;8716;52.268;20.968;2023-01-15T13:16:07;7.10;99.90
17200;DHT22;8716;52.268;20.968;2023-01-15T13:18:44;7.10;99.90
17200;DHT22;8716;52.268;20.968;2023-01-15T13:21:20;7.20;99.90
17200;DHT22;8716;52.268;20.968;2023-01-15T13:24:02;7.20;99.90
17200;DHT22;8716;52.268;20.968;2023-01-15T13:26:51;7.20;99.90
17200;DHT22;8716;52.268;20.968;2023-01-15T13:29:33;7.20;99.90
17200;DHT22;8716;52.268;20.968;2023-01-15T13:32:10;7.30;99.90
17200;DHT22;8716;52.268;20.968;2023-01-15T13:34:42;7.30;99.90
17200;DHT22;8716;52.268;20.968;2023-01-15T13:37:21;7.30;99.90
17200;DHT22;8716;52.268;20.968;2023-01-15T13:39:53;7.30;99.90
17200;DHT22;8716;52.268;20.968;2023-01-15T13:42:25;7.40;99.90
17200;DHT22;8716;52.268;20.968;2023-01-15T13:45:19;7.40;99.90
17200;DHT22;8716;52.268;20.968;2023-01-15T13:47:55;7.40;99.90
17200;DHT22;8716;52.268;20.968;2023-01-15T13:50:28;7.40;99.90
17200;DHT22;8716;52.268;20.968;2023-01-15T13:53:02;7.40;99.90
17200;DHT22;8716;52.268;20.968;2023-01-15T13:55:34;7.50;99.90
17200;DHT22;8716;52.268;20.968;2023-01-15T13:58:19;7.50;99.90
17200;DHT22;8716;52.268;20.968;2023-01-15T14:01:03;7.50;99.90
17200;DHT22;8716;52.268;20.968;2023-01-15T14:03:36;7.60;99.90
17200;DHT22;8716;52.268;20.968;2023-01-15T14:06:06;7.60;99.90
17200;DHT22;8716;52.268;20.968;2023-01-15T14:08:39;7.60;99.90
17200;DHT22;8716;52.268;20.968;2023-01-15T14:11:30;7.60;99.90
17200;DHT22;8716;52.268;20.968;2023-01-15T14:14:34;7.60;99.90
17200;DHT22;8716;52.268;20.968;2023-01-15T14:17:20;7.70;99.90
17200;DHT22;8716;52.268;20.968;2023-01-15T14:23:03;7.70;99.90
17200;DHT22;8716;52.268;20.968;2023-01-15T14:25:47;7.80;99.90
17200;DHT22;8716;52.268;20.968;2023-01-15T14:28:33;7.80;99.90
17200;DHT22;8716;52.268;20.968;2023-01-15T14:34:13;7.80;99.90
17200;DHT22;8716;52.268;20.968;2023-01-15T14:36:50;7.80;99.90
17200;DHT22;8716;52.268;20.968;2023-01-15T14:39:32;7.80;99.90
17200;DHT22;8716;52.268;20.968;2023-01-15T14:42:09;7.80;99.90
17200;DHT22;8716;52.268;20.968;2023-01-15T14:44:58;7.80;99.90
17200;DHT22;8716;52.268;20.968;2023-01-15T14:47:30;7.90;99.90
17200;DHT22;8716;52.268;20.968;2023-01-15T14:50:30;7.90;99.90
17200;DHT22;8716;52.268;20.968;2023-01-15T14:53:13;7.90;99.90
17200;DHT22;8716;52.268;20.968;2023-01-15T14:55:47;7.90;99.90
17200;DHT22;8716;52.268;20.968;2023-01-15T14:58:35;7.90;99.90
17200;DHT22;8716;52.268;20.968;2023-01-15T15:01:28;7.90;99.90
17200;DHT22;8716;52.268;20.968;2023-01-15T15:04:02;7.90;99.90
17200;DHT22;8716;52.268;20.968;2023-01-15T15:06:40;8.00;99.90
17200;DHT22;8716;52.268;20.968;2023-01-15T15:09:12;8.00;99.90
17200;DHT22;8716;52.268;20.968;2023-01-15T15:11:45;8.10;99.90
17200;DHT22;8716;52.268;20.968;2023-01-15T15:14:35;8.20;99.90
17200;DHT22;8716;52.268;20.968;2023-01-15T15:17:16;8.20;99.90
17200;DHT22;8716;52.268;20.968;2023-01-15T15:19:49;8.20;99.90
17200;DHT22;8716;52.268;20.968;2023-01-15T15:22:25;8.30;99.90
17200;DHT22;8716;52.268;20.968;2023-01-15T15:24:57;8.30;99.90
17200;DHT22;8716;52.268;20.968;2023-01-15T15:27:28;8.40;99.90
17200;DHT22;8716;52.268;20.968;2023-01-15T15:30:04;8.40;99.90
17200;DHT22;8716;52.268;20.968;2023-01-15T15:32:32;8.50;99.90
17200;DHT22;8716;52.268;20.968;2023-01-15T15:35:21;8.50;99.90
17200;DHT22;8716;52.268;20.968;2023-01-15T15:37:56;8.60;99.90
17200;DHT22;8716;52.268;20.968;2023-01-15T15:40:32;8.60;99.90
17200;DHT22;8716;52.268;20.968;2023-01-15T15:43:09;8.60;99.90
17200;DHT22;8716;52.268;20.968;2023-01-15T15:45:56;8.60;99.90
17200;DHT22;8716;52.268;20.968;2023-01-15T15:48:56;8.60;99.90
17200;DHT22;8716;52.268;20.968;2023-01-15T15:51:28;8.70;99.90
17200;DHT22;8716;52.268;20.968;2023-01-15T15:54:11;8.70;99.90
17200;DHT22;8716;52.268;20.968;2023-01-15T15:56:47;8.70;99.90
17200;DHT22;8716;52.268;20.968;2023-01-15T15:59:27;8.70;99.90
17200;DHT22;8716;52.268;20.968;2023-01-15T16:01:57;8.80;99.90
17200;DHT22;8716;52.268;20.968;2023-01-15T16:04:27;8.80;99.90
17200;DHT22;8716;52.268;20.968;2023-01-15T16:06:55;8.80;99.90
17200;DHT22;8716;52.268;20.968;2023-01-15T16:09:25;8.80;99.90
17200;DHT22;8716;52.268;20.968;2023-01-15T16:11:53;8.80;99.90
17200;DHT22;8716;52.268;20.968;2023-01-15T16:14:35;8.80;99.90
17200;DHT22;8716;52.268;20.968;2023-01-15T16:17:04;8.80;99.90
17200;DHT22;8716;52.268;20.968;2023-01-15T16:19:32;8.80;99.90
17200;DHT22;8716;52.268;20.968;2023-01-15T16:22:01;8.80;99.90
17200;DHT22;8716;52.268;20.968;2023-01-15T16:24:31;8.90;99.90
17200;DHT22;8716;52.268;20.968;2023-01-15T16:27:01;8.90;99.90
17200;DHT22;8716;52.268;20.968;2023-01-15T16:29:33;8.80;99.90
17200;DHT22;8716;52.268;20.968;2023-01-15T16:32:09;8.80;99.90
17200;DHT22;8716;52.268;20.968;2023-01-15T16:34:38;8.80;99.90
17200;DHT22;8716;52.268;20.968;2023-01-15T16:37:21;8.70;99.90
17200;DHT22;8716;52.268;20.968;2023-01-15T16:39:52;8.70;99.90